Pagrindinis puslapis
METAR-TAF:

METAR-TAF

Oro uostai :

Viljahermosa, Meksika

platuma: 18-00N, ilguma: 092-49W, Aukštis: 13 m

Dabartinis oras

Ataskaita buvo paskelbta 27 minutes, ne 02:43 UTC
Vėjas 4 kt iš Rytų/Šiaurės Rytų
Temperatūra 28°C
Drėgmė 84%
Slėgis 1011 hPa
Matomumas: 8.0 km
Išsisklaidę debesys ne aukštis 21000 ft

METAR: MMVA 200243Z 06004KT 5SM SCT210 28/25 A2985 RMK SLP107 52017 907 8/008 HZY

Laikas: 22:10 (03:10 UTC)

Prognozė

Ataskaita buvo paskelbta 9 valandos ir 46 minutes, ne 17:24 UTC
Prognozė galioja nuo 19 metu 18 UTC su 20 metu 18 UTC
Vėjas 8 kt iš Šiaurės
Matomumas: 6.4 km
Išsisklaidę debesys ne aukštis 1500 ft
Su prošvaistėmis ne aukštis 7000 ft
migla
Tapsmas
nuo 19 metu 20 UTC su 19 metu 21 UTC
Vėjas 15 kt iš Šiaurės
Nuo 20 metu 0300 UTC
Vėjas 5 kt iš Rytų
Matomumas: 8.0 km
Su prošvaistėmis ne aukštis 1500 ft
migla
Laikinai
nuo 20 metu 10 UTC su 20 metu 14 UTC
Matomumas: 4.8 km
lietus, rūkana,

TAF: MMVA 191724Z 1918/2018 35008KT 4SM HZ SCT015 BKN070 BECMG 1920/1921 35015KT FM200300 08005KT 5SM HZ BKN015 TEMPO 2010/2014 3SM -RA BR

Orai ataskaitas ir orų prognozės (METAR, TAF).

turimą stotys yra geltonos ir raudonos taškus žemėlapyje.

Perkelti pele per norėdami pamatyti stoties vardą.

Tada spustelėkite, norėdami matyti oro stebėjimo ir prognozės.

Norėdami pakeisti žemėlapį: spustelėkite ant žalios mygtukų su juodo kryžiaus žemyn,; žalią mygtuką su brūkšneliu, jei norite nutolinti; arba žalių rodyklių gretimoms žemėlapius.


METAR-TAF: